^^
TXWeather Station Historical Data
 
Daily Summary for August 25, 2019 Units:  English    Metric   Both
Daily Weekly Monthly Yearly Custom
  Current: High: Low: Average:
Temperature: 87 °F 87 °F 79 °F 81.3 °F
Dew Point: 79 °F 81 °F 76 °F 77.5 °F
Humidity: 78% 92% 78% 88%
Wind Speed: 3mph 4mph 0mph 1.4mph
Wind Gust: 7mph 8mph - -
WindWSW - - SSW
Pressure: 29.92 in 29.93 in 29.87 in -
Precipitation: 0 in      
Historical Graphs
 
 
Tabular Data for August 25, 2019
Time Temperature Dew Point Pressure Wind Wind Speed Wind Gust Humidity Rainfall Rate (Hourly) solar
00:04 82 °F 77 °F 29.93 in S 2 mph 6 mph 83% 0 in 0 W/m2
00:09 82 °F 76 °F 29.93 in SSW 2 mph 4 mph 83% 0 in 0 W/m2
00:14 82 °F 77 °F 29.93 in S 2 mph 4 mph 83% 0 in 0 W/m2
00:19 82 °F 77 °F 29.93 in S 3 mph 5 mph 84% 0 in 0 W/m2
00:24 82 °F 77 °F 29.92 in S 2 mph 3 mph 84% 0 in 0 W/m2
00:29 82 °F 77 °F 29.92 in SSW 2 mph 5 mph 84% 0 in 0 W/m2
00:34 82 °F 77 °F 29.92 in SW 3 mph 7 mph 84% 0 in 0 W/m2
00:39 82 °F 77 °F 29.92 in S 2 mph 7 mph 84% 0 in 0 W/m2
00:44 82 °F 77 °F 29.92 in S 3 mph 6 mph 84% 0 in 0 W/m2
00:49 82 °F 77 °F 29.92 in SSW 3 mph 8 mph 84% 0 in 0 W/m2
00:54 82 °F 77 °F 29.92 in SSW 3 mph 7 mph 85% 0 in 0 W/m2
00:59 82 °F 77 °F 29.92 in SSW 2 mph 4 mph 85% 0 in 0 W/m2
01:04 82 °F 77 °F 29.92 in S 4 mph 8 mph 85% 0 in 0 W/m2
01:09 82 °F 77 °F 29.92 in SSW 2 mph 6 mph 85% 0 in 0 W/m2
01:14 82 °F 77 °F 29.92 in SW 3 mph 7 mph 85% 0 in 0 W/m2
01:19 81 °F 77 °F 29.91 in S 3 mph 6 mph 86% 0 in 0 W/m2
01:24 81 °F 77 °F 29.91 in SSW 3 mph 7 mph 86% 0 in 0 W/m2
01:29 81 °F 77 °F 29.91 in SSW 3 mph 7 mph 86% 0 in 0 W/m2
01:34 81 °F 77 °F 29.91 in S 1 mph 7 mph 87% 0 in 0 W/m2
01:39 81 °F 77 °F 29.9 in S 3 mph 7 mph 87% 0 in 0 W/m2
01:44 81 °F 77 °F 29.9 in SSW 4 mph 8 mph 87% 0 in 0 W/m2
01:49 81 °F 77 °F 29.89 in S 1 mph 5 mph 87% 0 in 0 W/m2
01:54 81 °F 77 °F 29.89 in SSW 2 mph 6 mph 87% 0 in 0 W/m2
01:59 81 °F 77 °F 29.9 in SW 2 mph 6 mph 87% 0 in 0 W/m2
02:04 81 °F 77 °F 29.9 in SW 1 mph 4 mph 87% 0 in 0 W/m2
02:09 81 °F 77 °F 29.9 in WSW 2 mph 4 mph 87% 0 in 0 W/m2
02:14 81 °F 77 °F 29.9 in WSW 2 mph 4 mph 87% 0 in 0 W/m2
02:19 81 °F 77 °F 29.9 in SW 2 mph 5 mph 87% 0 in 0 W/m2
02:24 81 °F 77 °F 29.89 in SW 2 mph 5 mph 87% 0 in 0 W/m2
02:29 81 °F 77 °F 29.89 in SW 1 mph 3 mph 87% 0 in 0 W/m2
02:34 81 °F 77 °F 29.88 in SSW 1 mph 4 mph 87% 0 in 0 W/m2
02:39 81 °F 77 °F 29.89 in SSW 1 mph 3 mph 88% 0 in 0 W/m2
02:44 81 °F 77 °F 29.89 in SSW 1 mph 2 mph 88% 0 in 0 W/m2
02:49 81 °F 77 °F 29.89 in Calm   2 mph 88% 0 in 0 W/m2
02:54 81 °F 77 °F 29.89 in Calm   2 mph 88% 0 in 0 W/m2
02:59 81 °F 77 °F 29.89 in SSW 1 mph 2 mph 88% 0 in 0 W/m2
03:04 81 °F 77 °F 29.89 in SSW 1 mph 2 mph 88% 0 in 0 W/m2
03:09 81 °F 77 °F 29.89 in SSW 1 mph 3 mph 89% 0 in 0 W/m2
03:14 80 °F 77 °F 29.89 in SSW 1 mph 3 mph 89% 0 in 0 W/m2
03:19 81 °F 77 °F 29.89 in SSW 1 mph 2 mph 88% 0 in 0 W/m2
03:24 81 °F 77 °F 29.89 in SSW 1 mph 3 mph 88% 0 in 0 W/m2
03:29 81 °F 77 °F 29.89 in SSW 1 mph 3 mph 89% 0 in 0 W/m2
03:34 81 °F 77 °F 29.9 in SSW 1 mph 3 mph 88% 0 in 0 W/m2
03:39 81 °F 77 °F 29.9 in SW 1 mph 3 mph 88% 0 in 0 W/m2
03:44 81 °F 77 °F 29.9 in Calm   2 mph 89% 0 in 0 W/m2
03:49 80 °F 77 °F 29.89 in S 1 mph 3 mph 89% 0 in 0 W/m2
03:54 81 °F 77 °F 29.89 in SSW 2 mph 3 mph 89% 0 in 0 W/m2
03:59 81 °F 77 °F 29.89 in SW 2 mph 4 mph 89% 0 in 0 W/m2
04:04 81 °F 77 °F 29.88 in WSW 1 mph 4 mph 89% 0 in 0 W/m2
04:09 81 °F 77 °F 29.89 in SW 1 mph 3 mph 89% 0 in 0 W/m2
04:14 80 °F 77 °F 29.89 in Calm   2 mph 89% 0 in 0 W/m2
04:19 80 °F 77 °F 29.89 in SW 1 mph 3 mph 89% 0 in 0 W/m2
04:24 80 °F 77 °F 29.89 in SW 1 mph 2 mph 89% 0 in 0 W/m2
04:29 80 °F 77 °F 29.89 in Calm   1 mph 89% 0 in 0 W/m2
04:34 80 °F 77 °F 29.89 in SW 1 mph 3 mph 90% 0 in 0 W/m2
04:39 80 °F 77 °F 29.89 in SW 1 mph 3 mph 90% 0 in 0 W/m2
04:44 80 °F 77 °F 29.88 in SSW 1 mph 3 mph 90% 0 in 0 W/m2
04:49 80 °F 77 °F 29.88 in SSW 1 mph 2 mph 90% 0 in 0 W/m2
04:54 80 °F 77 °F 29.88 in SSW 2 mph 3 mph 90% 0 in 0 W/m2
04:59 80 °F 77 °F 29.88 in SSW 1 mph 3 mph 90% 0 in 0 W/m2
05:04 80 °F 77 °F 29.88 in SSW 1 mph 3 mph 90% 0 in 0 W/m2
05:09 80 °F 77 °F 29.88 in Calm   3 mph 91% 0 in 0 W/m2
05:14 80 °F 77 °F 29.88 in SSW 1 mph 2 mph 91% 0 in 0 W/m2
05:19 80 °F 77 °F 29.88 in SSW 2 mph 3 mph 91% 0 in 0 W/m2
05:24 80 °F 77 °F 29.88 in SSW 1 mph 3 mph 91% 0 in 0 W/m2
05:29 80 °F 77 °F 29.88 in SSW 2 mph 3 mph 91% 0 in 0 W/m2
05:34 80 °F 77 °F 29.88 in SSW 1 mph 3 mph 90% 0 in 0 W/m2
05:39 80 °F 77 °F 29.88 in Calm   1 mph 90% 0 in 0 W/m2
05:44 80 °F 77 °F 29.87 in SSW 1 mph 2 mph 90% 0 in 0 W/m2
05:49 80 °F 77 °F 29.87 in SSW 1 mph 3 mph 90% 0 in 0 W/m2
05:54 80 °F 77 °F 29.87 in SSW 1 mph 3 mph 90% 0 in 0 W/m2
05:59 80 °F 77 °F 29.87 in Calm   1 mph 91% 0 in 0 W/m2
06:04 80 °F 77 °F 29.87 in Calm   1 mph 91% 0 in 0 W/m2
06:09 80 °F 77 °F 29.87 in SSW 1 mph 1 mph 91% 0 in 0 W/m2
06:14 80 °F 77 °F 29.88 in SSW 1 mph 2 mph 91% 0 in 0 W/m2
06:19 80 °F 77 °F 29.88 in SSW 1 mph 3 mph 92% 0 in 0 W/m2
06:24 79 °F 77 °F 29.88 in SSW 1 mph 3 mph 92% 0 in 0 W/m2
06:29 79 °F 77 °F 29.88 in SSW 1 mph 3 mph 92% 0 in 0 W/m2
06:34 80 °F 77 °F 29.88 in Calm   2 mph 92% 0 in 0 W/m2
06:39 80 °F 77 °F 29.88 in S 2 mph 5 mph 92% 0 in 0 W/m2
06:44 80 °F 77 °F 29.88 in S 1 mph 5 mph 92% 0 in 0 W/m2
06:49 80 °F 77 °F 29.88 in S 2 mph 3 mph 92% 0 in 0 W/m2
06:54 80 °F 77 °F 29.88 in S 1 mph 3 mph 91% 0 in 0 W/m2
06:59 80 °F 77 °F 29.88 in S 1 mph 3 mph 92% 0 in 0 W/m2
07:04 80 °F 77 °F 29.88 in S 1 mph 3 mph 92% 0 in 7 W/m2
07:09 80 °F 77 °F 29.88 in Calm   2 mph 92% 0 in 11 W/m2
07:14 80 °F 77 °F 29.88 in S 1 mph 2 mph 92% 0 in 19 W/m2
07:19 80 °F 77 °F 29.88 in S 2 mph 3 mph 92% 0 in 28 W/m2
07:24 80 °F 78 °F 29.88 in S 2 mph 5 mph 92% 0 in 39 W/m2
07:29 80 °F 77 °F 29.88 in S 1 mph 4 mph 91% 0 in 60 W/m2
07:34 80 °F 78 °F 29.88 in S 2 mph 5 mph 91% 0 in 62 W/m2
07:39 81 °F 78 °F 29.89 in S 1 mph 2 mph 91% 0 in 54 W/m2
07:44 81 °F 78 °F 29.89 in S 1 mph 3 mph 90% 0 in 47 W/m2
07:49 81 °F 78 °F 29.89 in S 1 mph 2 mph 90% 0 in 40 W/m2
07:54 81 °F 78 °F 29.9 in S 1 mph 2 mph 91% 0 in 40 W/m2
07:59 81 °F 78 °F 29.9 in Calm   2 mph 91% 0 in 49 W/m2
08:04 81 °F 78 °F 29.9 in Calm   2 mph 91% 0 in 56 W/m2
08:09 81 °F 78 °F 29.91 in S 1 mph 3 mph 90% 0 in 58 W/m2
08:14 81 °F 78 °F 29.91 in S 1 mph 3 mph 90% 0 in 56 W/m2
08:19 81 °F 78 °F 29.91 in SSW 1 mph 3 mph 90% 0 in 81 W/m2
08:24 81 °F 78 °F 29.91 in SSW 1 mph 3 mph 91% 0 in 109 W/m2
08:29 81 °F 78 °F 29.91 in SSW 1 mph 3 mph 90% 0 in 132 W/m2
08:34 82 °F 78 °F 29.91 in SSW 1 mph 3 mph 89% 0 in 142 W/m2
08:39 82 °F 78 °F 29.91 in SSW 1 mph 2 mph 89% 0 in 120 W/m2
08:44 82 °F 79 °F 29.91 in S 1 mph 3 mph 89% 0 in 121 W/m2
08:49 82 °F 79 °F 29.91 in S 2 mph 3 mph 89% 0 in 127 W/m2
08:54 82 °F 79 °F 29.91 in S 2 mph 3 mph 88% 0 in 132 W/m2
08:59 82 °F 79 °F 29.91 in S 1 mph 3 mph 89% 0 in 153 W/m2
09:04 83 °F 79 °F 29.91 in SSW 1 mph 3 mph 88% 0 in 162 W/m2
09:09 83 °F 79 °F 29.91 in SSW 2 mph 4 mph 88% 0 in 181 W/m2
09:14 83 °F 79 °F 29.91 in S 1 mph 4 mph 88% 0 in 186 W/m2
09:19 83 °F 79 °F 29.91 in S 1 mph 3 mph 87% 0 in 174 W/m2
09:24 83 °F 79 °F 29.91 in S 2 mph 4 mph 87% 0 in 160 W/m2
09:29 83 °F 79 °F 29.91 in S 1 mph 3 mph 86% 0 in 162 W/m2
09:34 83 °F 79 °F 29.91 in SSW 2 mph 4 mph 86% 0 in 186 W/m2
09:39 83 °F 79 °F 29.91 in SSW 2 mph 5 mph 86% 0 in 243 W/m2
09:44 84 °F 79 °F 29.91 in SSW 1 mph 5 mph 85% 0 in 271 W/m2
09:49 84 °F 80 °F 29.91 in S 2 mph 5 mph 85% 0 in 271 W/m2
09:54 85 °F 79 °F 29.92 in W 2 mph 6 mph 83% 0 in 271 W/m2
09:59 85 °F 79 °F 29.92 in WSW 2 mph 6 mph 83% 0 in 397 W/m2
10:04 85 °F 80 °F 29.92 in SW 2 mph 5 mph 83% 0 in 571 W/m2
10:09 87 °F 81 °F 29.92 in SSW 2 mph 5 mph 82% 0 in 738 W/m2
10:14 87 °F 80 °F 29.92 in WSW 3 mph 7 mph 78% 0 in 548 W/m2
10:19 86 °F 79 °F 29.92 in WSW 3 mph 7 mph 79% 0 in 410 W/m2
10:24 86 °F 79 °F 29.92 in W 2 mph 7 mph 80% 0 in 529 W/m2
10:29 87 °F 79 °F 29.92 in W 3 mph 7 mph 79% 0 in 529 W/m2
10:34 87 °F 79 °F 29.92 in WSW 3 mph 7 mph 78% 0 in 383 W/m2
Villages of Bridgestone, Spring, TX USA
Compliments of Weather Underground - 2 mb